Woodlake, California
Current Conditions -  °F | °C
As of 11:55 PM on Thursday 23 Oct 2014 (Local Time) from KVIS Reporting Station
Clear Clear  
Wind Chill: 14°   Ceiling: Unl
Heat Index: 14°   Visibility: 10mi
Dew Point:   Wind: 0mph
Humidity: 67%   Direction: NA
Pressure: 30"   Gusts: NA
Location:  36.42°N, 119.09°W
Report Text: KVIS 240655Z 00000KT 10SM CLR 14/08 A3000 RMK AO1
Loading
Personal Weather Stations






























Interactive Weather Map
Tropical Storm Tracking
New forecast layout! Learn more

10-Day Weather Forecast

Advertisements
Track Severe Weather on mobile